Chesapeake — WDD3041 — position and weather

sailwx.info

Track history (hours):
 
Tides and Currents Weather Stations Pressure Air Temp Water Temp Dewpoint Dewpoint Depression Visibility Wind Speed Wind Dir Waves Ship Positions

Chesapeake

Owner: Vane Line Bunkering, Baltimore, MD. More information available from US FCC via Universal Licensing System and Coast Guard Vessel Documentation Center.

Last reported at 2015-Aug-05 05:31 UTC. Time now 2015-Aug-05 06:22 UTC.
Position N 39°54' W 075°12'.

Length 34 m; draft 16 m.

Type: Tug. MMSI: 367123040.

Date/timePositionNaut miles runAvg speedWind from/ knotsBaromVisibWave heightAir tempDewpointWater temp
2015-Aug-05 05:31N 39°54' W 075°12'0 0.0
2015-Aug-05 04:32N 39°54' W 075°12'0 0.0
2015-Aug-05 03:32N 39°54' W 075°12'0 0.0
2015-Aug-05 02:33N 39°54' W 075°12'0 0.0
2015-Aug-05 01:31N 39°54' W 075°12'0 0.0
2015-Aug-05 00:31N 39°54' W 075°12'0 0.0
2015-Aug-04 23:32N 39°54' W 075°12'0 0.0
2015-Aug-04 22:33N 39°54' W 075°12'0 0.0
2015-Aug-04 21:33N 39°54' W 075°12'0 0.0
2015-Aug-04 20:31N 39°54' W 075°12'0 0.0
2015-Aug-04 19:32N 39°54' W 075°12'0 0.0
2015-Aug-04 18:32N 39°54' W 075°12'0 0.0
2015-Aug-04 17:33N 39°54' W 075°12'0 0.0
2015-Aug-04 16:31N 39°54' W 075°12'0 0.0
2015-Aug-04 15:31N 39°54' W 075°12'0 0.0
2015-Aug-04 14:32N 39°54' W 075°12'0 0.0
2015-Aug-04 13:33N 39°54' W 075°12'0 0.0
2015-Aug-04 12:33N 39°54' W 075°12'0 0.0
2015-Aug-04 11:31N 39°54' W 075°12'1 0.6
2015-Aug-04 10:32N 39°54' W 075°12'0 0.0
2015-Aug-04 09:33N 39°54' W 075°12'0 0.0
2015-Aug-04 08:31N 39°54' W 075°12'0 0.0
2015-Aug-04 07:31N 39°54' W 075°12'0 0.0
2015-Aug-04 06:32N 39°54' W 075°12'0 0.0
2015-Aug-04 05:33N 39°54' W 075°12'0 0.0
2015-Aug-04 04:33N 39°54' W 075°12'0 0.0
2015-Aug-04 03:28N 39°54' W 075°12'0 0.0
2015-Aug-04 02:32N 39°54' W 075°12'0 0.0
2015-Aug-04 01:33N 39°54' W 075°12'0 0.0
2015-Aug-04 00:33N 39°54' W 075°12'0 0.0
2015-Aug-03 23:33N 39°54' W 075°12'0 0.0
2015-Aug-03 22:33N 39°54' W 075°12'0 0.1
2015-Aug-03 21:34N 39°54' W 075°12'0 0.0
2015-Aug-03 20:33N 39°54' W 075°12'0 0.0
2015-Aug-03 19:34N 39°54' W 075°12'0 0.1
2015-Aug-03 18:33N 39°54' W 075°12'0 0.1
2015-Aug-03 17:34N 39°54' W 075°12'0 0.1
2015-Aug-03 16:33N 39°54' W 075°12'0 0.0
2015-Aug-03 15:34N 39°54' W 075°12'0 0.0
2015-Aug-03 14:33N 39°54' W 075°12'0 0.0
2015-Aug-03 13:33N 39°54' W 075°12'0 0.1
2015-Aug-03 12:31N 39°54' W 075°13'0 0.1
2015-Aug-03 11:31N 39°54' W 075°12'0 0.1
2015-Aug-03 10:33N 39°54' W 075°12'0 0.0
2015-Aug-03 09:31N 39°54' W 075°12'0 0.0
2015-Aug-03 08:32N 39°54' W 075°12'0 0.0
2015-Aug-03 07:32N 39°54' W 075°12'0 0.0
2015-Aug-03 06:33N 39°54' W 075°12'0 0.0
2015-Aug-03 05:31N 39°54' W 075°12'0 0.0
2015-Aug-03 04:31N 39°54' W 075°12'0 0.0
2015-Aug-03 03:32N 39°54' W 075°12'0 0.0
2015-Aug-03 02:33N 39°54' W 075°12'0 0.0
2015-Aug-03 01:33N 39°54' W 075°12'0 0.0
2015-Aug-03 00:34N 39°54' W 075°12'0 0.0
2015-Aug-02 23:33N 39°54' W 075°12'0 0.0
2015-Aug-02 22:34N 39°54' W 075°12'0 0.1
2015-Aug-02 21:34N 39°54' W 075°12'0 0.0
2015-Aug-02 20:33N 39°54' W 075°12'0 0.2
2015-Aug-02 19:34N 39°54' W 075°12'8 8.0
2015-Aug-02 18:34N 39°50' W 075°22'1211.6
2015-Aug-02 17:34N 39°41' W 075°31'1110.7
2015-Aug-02 16:34N 39°31' W 075°33'9 8.8
2015-Aug-02 15:34N 39°23' W 075°28'1212.0
2015-Aug-02 14:33N 39°14' W 075°18'1211.5
2015-Aug-02 13:30N 39°03' W 075°10'1111.5
2015-Aug-02 12:34N 38°53' W 075°05'10 8.9
2015-Aug-02 11:28N 38°49' W 074°53'1210.2
2015-Aug-02 10:19N 38°58' W 074°43'10 9.9
2015-Aug-02 09:18N 39°05' W 074°34'38 9.7
2015-Aug-02 05:23N 39°35' W 074°04'810.3
2015-Aug-02 04:33N 39°43' W 073°60'1010.3
2015-Aug-02 03:33N 39°53' W 073°57'37 9.3
2015-Aug-01 23:33N 40°30' W 073°58'8 8.0
2015-Aug-01 22:34N 40°37' W 074°03'10 9.9
2015-Aug-01 21:34N 40°47' W 073°60'1312.1
2015-Aug-01 20:30N 40°59' W 073°54'14 0.3
2015-Jul-31 00:26N 41°12' W 073°57'19 8.2
2015-Jul-30 22:07N 40°53' W 073°56'5 8.6
2015-Jul-30 21:34N 40°49' W 073°58'8 7.5
2015-Jul-30 20:34N 40°42' W 074°02'7 6.6
2015-Jul-30 19:34N 40°35' W 074°02'3 3.0
2015-Jul-30 18:33N 40°32' W 074°01'6 4.5
2015-Jul-30 17:12N 40°29' W 073°55'41 7.3
2015-Jul-30 11:33N 39°48' W 073°57'8 7.5
2015-Jul-30 10:33N 39°41' W 074°01'8 7.7
2015-Jul-30 09:33N 39°34' W 074°05'8 7.6
2015-Jul-30 08:33N 39°27' W 074°09'8 7.9
2015-Jul-30 07:32N 39°21' W 074°15'8 7.7
2015-Jul-30 06:34N 39°15' W 074°22'8 7.7
2015-Jul-30 05:32N 39°09' W 074°28'7 7.5
2015-Jul-30 04:33N 39°03' W 074°34'9 7.7
2015-Jul-30 03:26N 38°58' W 074°43'7 8.3
2015-Jul-30 02:32N 38°52' W 074°48'7 7.6
2015-Jul-30 01:33N 38°48' W 074°57'6 6.2
2015-Jul-30 00:34N 38°51' W 075°03'6 6.4
2015-Jul-29 23:34N 38°57' W 075°07'5 4.7
2015-Jul-29 22:34N 39°01' W 075°10'5 5.0
2015-Jul-29 21:32N 39°06' W 075°12'9 7.1
2015-Jul-29 20:20N 39°14' W 075°18'7 9.0
2015-Jul-29 19:34N 39°19' W 075°24'1010.2
2015-Jul-29 18:33N 39°26' W 075°32'9 9.4
2015-Jul-29 17:33N 39°36' W 075°34'8 8.3
2015-Jul-29 16:33N 39°43' W 075°30'7 7.3
2015-Jul-29 15:33N 39°49' W 075°24'6 6.1
2015-Jul-29 14:33N 39°51' W 075°16'1 0.6
2015-Jul-29 13:33N 39°51' W 075°16'0 0.0
2015-Jul-29 12:33N 39°51' W 075°16'0 0.0
2015-Jul-29 11:31N 39°51' W 075°16'0 0.0
2015-Jul-29 10:32N 39°51' W 075°16'0 0.0
2015-Jul-29 09:32N 39°51' W 075°16'0 0.0
2015-Jul-29 08:33N 39°51' W 075°16'4 3.8
2015-Jul-29 07:33N 39°54' W 075°12'0 0.0
2015-Jul-29 06:31N 39°54' W 075°12'0 0.0
2015-Jul-29 05:32N 39°54' W 075°12'0 0.0
2015-Jul-29 04:32N 39°54' W 075°12'0 0.0
2015-Jul-29 03:33N 39°54' W 075°12'0 0.0
2015-Jul-29 02:31N 39°54' W 075°12'0 0.0
2015-Jul-29 01:31N 39°54' W 075°12'0 0.0
2015-Jul-29 00:29N 39°54' W 075°12'0 0.0
2015-Jul-28 23:33N 39°54' W 075°12'1 0.6
2015-Jul-28 22:32N 39°53' W 075°12'0 0.0
2015-Jul-28 21:33N 39°53' W 075°12'0 0.0
2015-Jul-28 20:33N 39°53' W 075°12'0 0.0
2015-Jul-28 19:31N 39°53' W 075°12'0 0.0
2015-Jul-28 18:32N 39°53' W 075°12'0 0.0
2015-Jul-28 17:32N 39°53' W 075°12'0 0.0
2015-Jul-28 16:33N 39°53' W 075°12'0 0.0
2015-Jul-28 15:31N 39°53' W 075°12'0 0.0
2015-Jul-28 14:31N 39°53' W 075°12'0 0.0
2015-Jul-28 13:32N 39°53' W 075°12'0 0.0
2015-Jul-28 12:33N 39°53' W 075°12'0 0.0
2015-Jul-28 11:33N 39°53' W 075°12'0 0.0
2015-Jul-28 10:31N 39°53' W 075°12'0 0.0
2015-Jul-28 09:32N 39°53' W 075°12'0 0.0
2015-Jul-28 08:32N 39°53' W 075°12'0 0.0
2015-Jul-28 07:33N 39°53' W 075°12'0 0.0
2015-Jul-28 06:31N 39°53' W 075°12'0 0.0
2015-Jul-28 05:31N 39°53' W 075°12'0 0.0
2015-Jul-28 04:32N 39°53' W 075°12'0 0.0
2015-Jul-28 03:33N 39°53' W 075°12'0 0.0
2015-Jul-28 02:33N 39°53' W 075°12'0 0.0
2015-Jul-28 01:31N 39°53' W 075°12'0 0.0
2015-Jul-28 00:32N 39°53' W 075°12'0 0.0
2015-Jul-27 23:32N 39°53' W 075°12'0 0.1
2015-Jul-27 22:31N 39°54' W 075°12'0 0.0
2015-Jul-27 21:33N 39°54' W 075°12'0 0.0
2015-Jul-27 20:33N 39°54' W 075°12'1 0.6
2015-Jul-27 19:33N 39°54' W 075°12'0 0.0
2015-Jul-27 18:33N 39°54' W 075°12'0 0.0
2015-Jul-27 17:33N 39°54' W 075°12'0 0.0
2015-Jul-27 16:33N 39°54' W 075°12'0 0.0
2015-Jul-27 15:33N 39°54' W 075°12'0 0.0
2015-Jul-27 14:33N 39°54' W 075°12'1 0.6
2015-Jul-27 13:33N 39°53' W 075°12'0 0.0
2015-Jul-27 12:33N 39°53' W 075°12'0 0.0
2015-Jul-27 11:33N 39°53' W 075°12'0 0.0
2015-Jul-27 10:33N 39°53' W 075°12'0 0.0
2015-Jul-27 09:33N 39°53' W 075°12'0 0.0
2015-Jul-27 08:33N 39°53' W 075°12'0 0.0
2015-Jul-27 07:33N 39°53' W 075°12'0 0.0
2015-Jul-27 06:33N 39°53' W 075°12'0 0.0
2015-Jul-27 05:33N 39°53' W 075°12'0 0.1
2015-Jul-27 04:33N 39°54' W 075°12'4 4.4
2015-Jul-27 03:33N 39°51' W 075°16'4 3.6
2015-Jul-27 02:33N 39°51' W 075°21'6 6.3
2015-Jul-27 01:33N 39°47' W 075°27'8 8.3
2015-Jul-27 00:33N 39°40' W 075°32'7 7.1
2015-Jul-26 23:33N 39°33' W 075°33'8 7.9
2015-Jul-26 22:33N 39°25' W 075°31'9 9.3
2015-Jul-26 21:33N 39°18' W 075°22'10 9.9
2015-Jul-26 20:33N 39°10' W 075°15'1211.8
2015-Jul-26 19:33N 38°59' W 075°08'1111.4
2015-Jul-26 18:33N 38°49' W 075°02'65 9.3
2015-Jul-26 11:33N 39°36' W 074°04'1010.0
2015-Jul-26 10:32N 39°46' W 073°59'46 9.2
2015-Jul-26 05:33N 40°31' W 074°01'  
Track history (hours):
 
Tides and Currents Weather Stations Pressure Air Temp Water Temp Dewpoint Dewpoint Depression Visibility Wind Speed Wind Dir Waves Ship Positions

Chesapeake

Owner: Vane Line Bunkering, Baltimore, MD. More information available from US FCC via Universal Licensing System and Coast Guard Vessel Documentation Center.

Last reported at 2015-Aug-05 05:31 UTC. Time now 2015-Aug-05 06:22 UTC.
Position N 39°54' W 075°12'.

Length 34 m; draft 16 m.

Type: Tug. MMSI: 367123040.

Date/timePositionNaut miles runAvg speedWind from/ knotsBaromVisibWave heightAir tempDewpointWater temp
2015-Aug-05 05:31N 39°54' W 075°12'0 0.0
2015-Aug-05 04:32N 39°54' W 075°12'0 0.0
2015-Aug-05 03:32N 39°54' W 075°12'0 0.0
2015-Aug-05 02:33N 39°54' W 075°12'0 0.0
2015-Aug-05 01:31N 39°54' W 075°12'0 0.0
2015-Aug-05 00:31N 39°54' W 075°12'0 0.0
2015-Aug-04 23:32N 39°54' W 075°12'0 0.0
2015-Aug-04 22:33N 39°54' W 075°12'0 0.0
2015-Aug-04 21:33N 39°54' W 075°12'0 0.0
2015-Aug-04 20:31N 39°54' W 075°12'0 0.0
2015-Aug-04 19:32N 39°54' W 075°12'0 0.0
2015-Aug-04 18:32N 39°54' W 075°12'0 0.0
2015-Aug-04 17:33N 39°54' W 075°12'0 0.0
2015-Aug-04 16:31N 39°54' W 075°12'0 0.0
2015-Aug-04 15:31N 39°54' W 075°12'0 0.0
2015-Aug-04 14:32N 39°54' W 075°12'0 0.0
2015-Aug-04 13:33N 39°54' W 075°12'0 0.0
2015-Aug-04 12:33N 39°54' W 075°12'0 0.0
2015-Aug-04 11:31N 39°54' W 075°12'1 0.6
2015-Aug-04 10:32N 39°54' W 075°12'0 0.0
2015-Aug-04 09:33N 39°54' W 075°12'0 0.0
2015-Aug-04 08:31N 39°54' W 075°12'0 0.0
2015-Aug-04 07:31N 39°54' W 075°12'0 0.0
2015-Aug-04 06:32N 39°54' W 075°12'0 0.0
2015-Aug-04 05:33N 39°54' W 075°12'0 0.0
2015-Aug-04 04:33N 39°54' W 075°12'0 0.0
2015-Aug-04 03:28N 39°54' W 075°12'0 0.0
2015-Aug-04 02:32N 39°54' W 075°12'0 0.0
2015-Aug-04 01:33N 39°54' W 075°12'0 0.0
2015-Aug-04 00:33N 39°54' W 075°12'0 0.0
2015-Aug-03 23:33N 39°54' W 075°12'0 0.0
2015-Aug-03 22:33N 39°54' W 075°12'0 0.1
2015-Aug-03 21:34N 39°54' W 075°12'0 0.0
2015-Aug-03 20:33N 39°54' W 075°12'0 0.0
2015-Aug-03 19:34N 39°54' W 075°12'0 0.1
2015-Aug-03 18:33N 39°54' W 075°12'0 0.1
2015-Aug-03 17:34N 39°54' W 075°12'0 0.1
2015-Aug-03 16:33N 39°54' W 075°12'0 0.0
2015-Aug-03 15:34N 39°54' W 075°12'0 0.0
2015-Aug-03 14:33N 39°54' W 075°12'0 0.0
2015-Aug-03 13:33N 39°54' W 075°12'0 0.1
2015-Aug-03 12:31N 39°54' W 075°13'0 0.1
2015-Aug-03 11:31N 39°54' W 075°12'0 0.1
2015-Aug-03 10:33N 39°54' W 075°12'0 0.0
2015-Aug-03 09:31N 39°54' W 075°12'0 0.0
2015-Aug-03 08:32N 39°54' W 075°12'0 0.0
2015-Aug-03 07:32N 39°54' W 075°12'0 0.0
2015-Aug-03 06:33N 39°54' W 075°12'0 0.0
2015-Aug-03 05:31N 39°54' W 075°12'0 0.0
2015-Aug-03 04:31N 39°54' W 075°12'0 0.0
2015-Aug-03 03:32N 39°54' W 075°12'0 0.0
2015-Aug-03 02:33N 39°54' W 075°12'0 0.0
2015-Aug-03 01:33N 39°54' W 075°12'0 0.0
2015-Aug-03 00:34N 39°54' W 075°12'0 0.0
2015-Aug-02 23:33N 39°54' W 075°12'0 0.0
2015-Aug-02 22:34N 39°54' W 075°12'0 0.1
2015-Aug-02 21:34N 39°54' W 075°12'0 0.0
2015-Aug-02 20:33N 39°54' W 075°12'0 0.2
2015-Aug-02 19:34N 39°54' W 075°12'8 8.0
2015-Aug-02 18:34N 39°50' W 075°22'1211.6
2015-Aug-02 17:34N 39°41' W 075°31'1110.7
2015-Aug-02 16:34N 39°31' W 075°33'9 8.8
2015-Aug-02 15:34N 39°23' W 075°28'1212.0
2015-Aug-02 14:33N 39°14' W 075°18'1211.5
2015-Aug-02 13:30N 39°03' W 075°10'1111.5
2015-Aug-02 12:34N 38°53' W 075°05'10 8.9
2015-Aug-02 11:28N 38°49' W 074°53'1210.2
2015-Aug-02 10:19N 38°58' W 074°43'10 9.9
2015-Aug-02 09:18N 39°05' W 074°34'38 9.7
2015-Aug-02 05:23N 39°35' W 074°04'810.3
2015-Aug-02 04:33N 39°43' W 073°60'1010.3
2015-Aug-02 03:33N 39°53' W 073°57'37 9.3
2015-Aug-01 23:33N 40°30' W 073°58'8 8.0
2015-Aug-01 22:34N 40°37' W 074°03'10 9.9
2015-Aug-01 21:34N 40°47' W 073°60'1312.1
2015-Aug-01 20:30N 40°59' W 073°54'14 0.3
2015-Jul-31 00:26N 41°12' W 073°57'19 8.2
2015-Jul-30 22:07N 40°53' W 073°56'5 8.6
2015-Jul-30 21:34N 40°49' W 073°58'8 7.5
2015-Jul-30 20:34N 40°42' W 074°02'7 6.6
2015-Jul-30 19:34N 40°35' W 074°02'3 3.0
2015-Jul-30 18:33N 40°32' W 074°01'6 4.5
2015-Jul-30 17:12N 40°29' W 073°55'41 7.3
2015-Jul-30 11:33N 39°48' W 073°57'8 7.5
2015-Jul-30 10:33N 39°41' W 074°01'8 7.7
2015-Jul-30 09:33N 39°34' W 074°05'8 7.6
2015-Jul-30 08:33N 39°27' W 074°09'8 7.9
2015-Jul-30 07:32N 39°21' W 074°15'8 7.7
2015-Jul-30 06:34N 39°15' W 074°22'8 7.7
2015-Jul-30 05:32N 39°09' W 074°28'7 7.5
2015-Jul-30 04:33N 39°03' W 074°34'9 7.7
2015-Jul-30 03:26N 38°58' W 074°43'7 8.3
2015-Jul-30 02:32N 38°52' W 074°48'7 7.6
2015-Jul-30 01:33N 38°48' W 074°57'6 6.2
2015-Jul-30 00:34N 38°51' W 075°03'6 6.4
2015-Jul-29 23:34N 38°57' W 075°07'5 4.7
2015-Jul-29 22:34N 39°01' W 075°10'5 5.0
2015-Jul-29 21:32N 39°06' W 075°12'9 7.1
2015-Jul-29 20:20N 39°14' W 075°18'7 9.0
2015-Jul-29 19:34N 39°19' W 075°24'1010.2
2015-Jul-29 18:33N 39°26' W 075°32'9 9.4
2015-Jul-29 17:33N 39°36' W 075°34'8 8.3
2015-Jul-29 16:33N 39°43' W 075°30'7 7.3
2015-Jul-29 15:33N 39°49' W 075°24'6 6.1
2015-Jul-29 14:33N 39°51' W 075°16'1 0.6
2015-Jul-29 13:33N 39°51' W 075°16'0 0.0
2015-Jul-29 12:33N 39°51' W 075°16'0 0.0
2015-Jul-29 11:31N 39°51' W 075°16'0 0.0
2015-Jul-29 10:32N 39°51' W 075°16'0 0.0
2015-Jul-29 09:32N 39°51' W 075°16'0 0.0
2015-Jul-29 08:33N 39°51' W 075°16'4 3.8
2015-Jul-29 07:33N 39°54' W 075°12'0 0.0
2015-Jul-29 06:31N 39°54' W 075°12'0 0.0
2015-Jul-29 05:32N 39°54' W 075°12'0 0.0
2015-Jul-29 04:32N 39°54' W 075°12'0 0.0
2015-Jul-29 03:33N 39°54' W 075°12'0 0.0
2015-Jul-29 02:31N 39°54' W 075°12'0 0.0
2015-Jul-29 01:31N 39°54' W 075°12'0 0.0
2015-Jul-29 00:29N 39°54' W 075°12'0 0.0
2015-Jul-28 23:33N 39°54' W 075°12'1 0.6
2015-Jul-28 22:32N 39°53' W 075°12'0 0.0
2015-Jul-28 21:33N 39°53' W 075°12'0 0.0
2015-Jul-28 20:33N 39°53' W 075°12'0 0.0
2015-Jul-28 19:31N 39°53' W 075°12'0 0.0
2015-Jul-28 18:32N 39°53' W 075°12'0 0.0
2015-Jul-28 17:32N 39°53' W 075°12'0 0.0
2015-Jul-28 16:33N 39°53' W 075°12'0 0.0
2015-Jul-28 15:31N 39°53' W 075°12'0 0.0
2015-Jul-28 14:31N 39°53' W 075°12'0 0.0
2015-Jul-28 13:32N 39°53' W 075°12'0 0.0
2015-Jul-28 12:33N 39°53' W 075°12'0 0.0
2015-Jul-28 11:33N 39°53' W 075°12'0 0.0
2015-Jul-28 10:31N 39°53' W 075°12'0 0.0
2015-Jul-28 09:32N 39°53' W 075°12'0 0.0
2015-Jul-28 08:32N 39°53' W 075°12'0 0.0
2015-Jul-28 07:33N 39°53' W 075°12'0 0.0
2015-Jul-28 06:31N 39°53' W 075°12'0 0.0
2015-Jul-28 05:31N 39°53' W 075°12'0 0.0
2015-Jul-28 04:32N 39°53' W 075°12'0 0.0
2015-Jul-28 03:33N 39°53' W 075°12'0 0.0
2015-Jul-28 02:33N 39°53' W 075°12'0 0.0
2015-Jul-28 01:31N 39°53' W 075°12'0 0.0
2015-Jul-28 00:32N 39°53' W 075°12'0 0.0
2015-Jul-27 23:32N 39°53' W 075°12'0 0.1
2015-Jul-27 22:31N 39°54' W 075°12'0 0.0
2015-Jul-27 21:33N 39°54' W 075°12'0 0.0
2015-Jul-27 20:33N 39°54' W 075°12'1 0.6
2015-Jul-27 19:33N 39°54' W 075°12'0 0.0
2015-Jul-27 18:33N 39°54' W 075°12'0 0.0
2015-Jul-27 17:33N 39°54' W 075°12'0 0.0
2015-Jul-27 16:33N 39°54' W 075°12'0 0.0
2015-Jul-27 15:33N 39°54' W 075°12'0 0.0
2015-Jul-27 14:33N 39°54' W 075°12'1 0.6
2015-Jul-27 13:33N 39°53' W 075°12'0 0.0
2015-Jul-27 12:33N 39°53' W 075°12'0 0.0
2015-Jul-27 11:33N 39°53' W 075°12'0 0.0
2015-Jul-27 10:33N 39°53' W 075°12'0 0.0
2015-Jul-27 09:33N 39°53' W 075°12'0 0.0
2015-Jul-27 08:33N 39°53' W 075°12'0 0.0
2015-Jul-27 07:33N 39°53' W 075°12'0 0.0
2015-Jul-27 06:33N 39°53' W 075°12'0 0.0
2015-Jul-27 05:33N 39°53' W 075°12'0 0.1
2015-Jul-27 04:33N 39°54' W 075°12'4 4.4
2015-Jul-27 03:33N 39°51' W 075°16'4 3.6
2015-Jul-27 02:33N 39°51' W 075°21'6 6.3
2015-Jul-27 01:33N 39°47' W 075°27'8 8.3
2015-Jul-27 00:33N 39°40' W 075°32'7 7.1
2015-Jul-26 23:33N 39°33' W 075°33'8 7.9
2015-Jul-26 22:33N 39°25' W 075°31'9 9.3
2015-Jul-26 21:33N 39°18' W 075°22'10 9.9
2015-Jul-26 20:33N 39°10' W 075°15'1211.8
2015-Jul-26 19:33N 38°59' W 075°08'1111.4
2015-Jul-26 18:33N 38°49' W 075°02'65 9.3
2015-Jul-26 11:33N 39°36' W 074°04'1010.0
2015-Jul-26 10:32N 39°46' W 073°59'46 9.2
2015-Jul-26 05:33N 40°31' W 074°01'  

Dump ship's entire track history